createdAt,value
2023-04-10T00:00:17.205Z,35.64
2023-04-10T00:02:44.105Z,35.71
2023-04-10T00:05:12.409Z,35.70
2023-04-10T00:07:39.317Z,36.01
2023-04-10T00:10:06.553Z,35.97
2023-04-10T00:12:33.413Z,35.78
2023-04-10T00:15:00.233Z,35.78
2023-04-10T00:17:27.071Z,35.85
2023-04-10T00:19:53.883Z,35.90
2023-04-10T00:22:22.037Z,36.19
2023-04-10T00:24:48.867Z,36.15
2023-04-10T00:27:15.690Z,36.26
2023-04-10T00:29:42.496Z,36.26
2023-04-10T00:32:09.444Z,36.10
2023-04-10T00:34:36.255Z,35.98
2023-04-10T00:37:03.054Z,36.08
2023-04-10T00:39:31.235Z,35.97
2023-04-10T00:41:58.029Z,35.99
2023-04-10T00:44:25.019Z,35.91
2023-04-10T00:46:51.986Z,36.00
2023-04-10T00:49:18.793Z,36.21
2023-04-10T00:51:45.654Z,36.06
2023-04-10T00:54:12.524Z,35.93
2023-04-10T00:56:40.738Z,36.17
2023-04-10T00:59:07.631Z,35.98
2023-04-10T01:01:34.715Z,36.03
2023-04-10T01:04:01.798Z,35.94
2023-04-10T01:06:35.575Z,35.94
2023-04-10T01:09:05.949Z,36.12
2023-04-10T01:11:38.396Z,36.12
2023-04-10T01:14:12.100Z,36.23
2023-04-10T01:16:44.031Z,36.37
2023-04-10T01:19:15.024Z,36.27
2023-04-10T01:21:42.336Z,36.35
2023-04-10T01:24:18.257Z,36.31
2023-04-10T01:26:59.941Z,36.20
2023-04-10T01:29:29.338Z,36.04
2023-04-10T01:32:00.375Z,36.12
2023-04-10T01:34:30.693Z,36.18
2023-04-10T01:36:59.978Z,36.17
2023-04-10T01:39:27.493Z,36.26
2023-04-10T01:41:55.598Z,36.08
2023-04-10T01:44:23.878Z,36.14
2023-04-10T01:46:52.824Z,36.05
2023-04-10T01:49:20.274Z,36.21
2023-04-10T01:51:48.397Z,36.03
2023-04-10T01:54:15.564Z,36.15
2023-04-10T01:56:42.625Z,36.13
2023-04-10T01:59:09.413Z,36.09
2023-04-10T02:01:36.262Z,36.26
2023-04-10T02:04:04.750Z,36.23
2023-04-10T02:06:37.507Z,36.54
2023-04-10T02:09:10.315Z,36.39
2023-04-10T02:11:41.242Z,36.46
2023-04-10T02:14:10.673Z,36.33
2023-04-10T02:16:38.462Z,36.48
2023-04-10T02:19:09.662Z,36.29
2023-04-10T02:21:37.111Z,36.24
2023-04-10T02:24:04.256Z,36.40
2023-04-10T02:26:31.074Z,36.25
2023-04-10T02:28:57.906Z,36.29
2023-04-10T02:31:24.864Z,36.33
2023-04-10T02:33:51.934Z,35.93
2023-04-10T02:36:20.360Z,35.64
2023-04-10T02:38:47.148Z,35.21
2023-04-10T02:41:14.072Z,35.16
2023-04-10T02:43:40.971Z,35.17
2023-04-10T02:46:07.802Z,35.41
2023-04-10T02:48:34.612Z,35.39
2023-04-10T02:51:01.462Z,35.30
2023-04-10T02:53:29.608Z,35.56
2023-04-10T02:55:56.447Z,35.48
2023-04-10T02:58:23.394Z,35.08
2023-04-10T03:00:50.698Z,35.38
2023-04-10T03:03:18.293Z,35.62
2023-04-10T03:05:45.559Z,35.74
2023-04-10T03:08:12.406Z,35.54
2023-04-10T03:10:40.590Z,35.53
2023-04-10T03:13:07.427Z,35.73
2023-04-10T03:15:34.217Z,35.76
2023-04-10T03:18:01.035Z,35.76
2023-04-10T03:20:27.907Z,35.94
2023-04-10T03:22:54.784Z,36.01
2023-04-10T03:25:21.600Z,36.12
2023-04-10T03:27:49.803Z,35.97
2023-04-10T03:30:16.784Z,36.25
2023-04-10T03:32:43.606Z,36.27
2023-04-10T03:35:10.505Z,36.16
2023-04-10T03:37:37.327Z,36.01
2023-04-10T03:40:05.518Z,36.25
2023-04-10T03:42:32.352Z,36.34
2023-04-10T03:45:00.532Z,36.14
2023-04-10T03:47:27.440Z,36.28
2023-04-10T03:49:54.285Z,36.18
2023-04-10T03:52:21.079Z,36.19
2023-04-10T03:54:47.924Z,36.23
2023-04-10T03:57:14.755Z,36.22
2023-04-10T03:59:41.557Z,36.07
2023-04-10T04:02:09.844Z,35.93
2023-04-10T04:04:36.977Z,36.02
2023-04-10T04:07:03.922Z,36.19
2023-04-10T04:09:30.743Z,35.84
2023-04-10T04:11:57.786Z,35.93
2023-04-10T04:14:24.725Z,36.29
2023-04-10T04:16:51.809Z,36.06
2023-04-10T04:19:20.028Z,36.23
2023-04-10T04:21:46.838Z,36.43
2023-04-10T04:24:13.641Z,36.08
2023-04-10T04:26:40.493Z,36.18
2023-04-10T04:29:07.396Z,36.32
2023-04-10T04:31:34.209Z,36.33
2023-04-10T04:34:01.282Z,36.35
2023-04-10T04:36:29.464Z,36.27
2023-04-10T04:38:56.278Z,36.33
2023-04-10T04:41:23.144Z,36.48
2023-04-10T04:43:49.967Z,36.47
2023-04-10T04:46:16.831Z,36.36
2023-04-10T04:48:43.685Z,35.95
2023-04-10T04:51:10.496Z,35.74
2023-04-10T04:53:38.660Z,35.69
2023-04-10T04:56:05.910Z,35.78
2023-04-10T04:58:32.738Z,35.75
2023-04-10T05:00:59.579Z,35.70
2023-04-10T05:03:26.634Z,35.60
2023-04-10T05:05:53.552Z,35.69
2023-04-10T05:08:20.384Z,35.28
2023-04-10T05:10:48.594Z,35.27
2023-04-10T05:13:15.402Z,34.97
2023-04-10T05:15:42.293Z,35.10
2023-04-10T05:18:09.346Z,35.07
2023-04-10T05:20:36.188Z,35.09
2023-04-10T05:23:03.205Z,35.16
2023-04-10T05:25:30.040Z,35.23
2023-04-10T05:27:58.199Z,34.96
2023-04-10T05:30:25.011Z,35.36
2023-04-10T05:32:51.913Z,35.03
2023-04-10T05:35:18.794Z,35.10
2023-04-10T05:37:45.610Z,35.18
2023-04-10T05:40:12.451Z,35.27
2023-04-10T05:42:39.364Z,35.50
2023-04-10T05:45:08.323Z,35.58
2023-04-10T05:47:35.200Z,35.62
2023-04-10T05:50:02.085Z,35.41
2023-04-10T05:52:29.109Z,35.76
2023-04-10T05:54:55.941Z,35.74
2023-04-10T05:57:23.521Z,35.65
2023-04-10T05:59:50.362Z,35.75
2023-04-10T06:02:18.726Z,36.01
2023-04-10T06:04:45.759Z,36.03
2023-04-10T06:07:12.755Z,35.95
2023-04-10T06:09:39.599Z,36.31
2023-04-10T06:12:06.419Z,36.17
2023-04-10T06:14:33.258Z,36.13
2023-04-10T06:17:00.147Z,36.63
2023-04-10T06:19:28.296Z,36.41
2023-04-10T06:21:55.225Z,36.03
2023-04-10T06:24:22.166Z,35.54
2023-04-10T06:26:48.959Z,34.88
2023-04-10T06:29:15.836Z,34.37
2023-04-10T06:31:42.708Z,34.01
2023-04-10T06:34:09.517Z,33.46
2023-04-10T06:36:37.716Z,33.44
2023-04-10T06:39:04.547Z,32.98
2023-04-10T06:41:31.361Z,33.60
2023-04-10T06:43:58.200Z,33.89
2023-04-10T06:46:25.128Z,33.31
2023-04-10T06:48:52.020Z,33.38
2023-04-10T06:51:18.931Z,33.20
2023-04-10T06:53:47.165Z,33.30
2023-04-10T06:56:13.989Z,33.82
2023-04-10T06:58:40.827Z,33.63
2023-04-10T07:01:07.726Z,34.12
2023-04-10T07:03:34.680Z,34.11
2023-04-10T07:06:01.566Z,34.06
2023-04-10T07:08:28.435Z,33.74
2023-04-10T07:10:58.427Z,33.68
2023-04-10T07:13:25.662Z,33.88
2023-04-10T07:15:52.523Z,33.61
2023-04-10T07:18:19.410Z,33.40
2023-04-10T07:20:46.212Z,32.87
2023-04-10T07:23:13.041Z,32.74
2023-04-10T07:25:41.342Z,32.76
2023-04-10T07:28:09.507Z,32.91
2023-04-10T07:30:36.406Z,32.90
2023-04-10T07:33:03.579Z,33.32
2023-04-10T07:35:30.561Z,33.57
2023-04-10T07:37:57.386Z,33.83
2023-04-10T07:40:24.244Z,33.66
2023-04-10T07:42:52.061Z,33.89
2023-04-10T07:45:21.925Z,34.12
2023-04-10T07:47:48.743Z,34.26
2023-04-10T07:50:15.781Z,34.22
2023-04-10T07:52:42.615Z,34.48
2023-04-10T07:55:09.771Z,34.40
2023-04-10T07:57:36.566Z,34.56
2023-04-10T08:00:03.603Z,34.62
2023-04-10T08:02:31.918Z,34.48
2023-04-10T08:04:58.920Z,34.56
2023-04-10T08:07:25.896Z,34.73
2023-04-10T08:09:52.705Z,34.88
2023-04-10T08:12:19.524Z,34.57
2023-04-10T08:14:46.352Z,34.91
2023-04-10T08:17:13.150Z,34.78
2023-04-10T08:19:41.688Z,34.99
2023-04-10T08:22:08.669Z,35.00
2023-04-10T08:24:35.481Z,34.98
2023-04-10T08:27:02.280Z,34.88
2023-04-10T08:29:29.118Z,35.05
2023-04-10T08:31:55.962Z,35.10
2023-04-10T08:34:22.763Z,35.02
2023-04-10T08:36:51.094Z,35.12
2023-04-10T08:39:17.922Z,35.03
2023-04-10T08:41:44.730Z,35.15
2023-04-10T08:44:11.743Z,35.31
2023-04-10T08:46:41.700Z,34.84
2023-04-10T08:49:09.961Z,35.15
2023-04-10T08:51:39.161Z,35.04
2023-04-10T08:54:08.629Z,35.07
2023-04-10T08:56:35.963Z,35.00
2023-04-10T08:59:03.023Z,35.06
2023-04-10T09:01:29.850Z,35.36
2023-04-10T09:03:57.708Z,35.12
2023-04-10T09:06:24.795Z,35.15
2023-04-10T09:08:51.615Z,35.12
2023-04-10T09:11:19.794Z,35.11
2023-04-10T09:13:46.632Z,35.19
2023-04-10T09:16:13.845Z,35.12
2023-04-10T09:18:41.917Z,35.10
2023-04-10T09:21:09.193Z,35.21
2023-04-10T09:23:36.046Z,34.88
2023-04-10T09:26:06.109Z,35.00
2023-04-10T09:28:54.378Z,35.26
2023-04-10T09:31:27.245Z,35.22
2023-04-10T09:34:06.552Z,35.31
2023-04-10T09:36:33.397Z,35.12
2023-04-10T09:39:00.332Z,34.98
2023-04-10T09:41:27.850Z,35.11
2023-04-10T09:44:06.780Z,34.92
2023-04-10T09:46:33.681Z,35.21
2023-04-10T09:49:00.848Z,35.19
2023-04-10T09:51:28.453Z,35.07
2023-04-10T09:53:55.555Z,35.11
2023-04-10T09:56:22.967Z,35.11
2023-04-10T09:58:51.107Z,35.06
2023-04-10T10:01:19.991Z,35.03
2023-04-10T10:03:46.902Z,35.08
2023-04-10T10:06:14.030Z,35.20
2023-04-10T10:08:40.988Z,35.37
2023-04-10T10:11:08.383Z,35.42
2023-04-10T10:13:38.863Z,35.03
2023-04-10T10:16:08.811Z,35.22
2023-04-10T10:18:41.510Z,35.04
2023-04-10T10:21:09.414Z,34.76
2023-04-10T10:23:36.666Z,35.19
2023-04-10T10:26:04.973Z,34.95
2023-04-10T10:28:33.036Z,35.06
2023-04-10T10:31:00.021Z,35.18
2023-04-10T10:33:27.510Z,35.12
2023-04-10T10:35:58.094Z,35.20
2023-04-10T10:38:24.902Z,35.01
2023-04-10T10:40:54.712Z,35.09
2023-04-10T10:43:25.034Z,35.15
2023-04-10T10:45:54.387Z,35.15
2023-04-10T10:48:21.258Z,34.97
2023-04-10T10:50:52.485Z,35.04
2023-04-10T10:53:33.659Z,36.08
2023-04-10T10:56:21.918Z,36.99
2023-04-10T10:58:49.254Z,35.39
2023-04-10T11:01:16.788Z,35.78
2023-04-10T11:03:44.264Z,36.45
2023-04-10T11:06:11.952Z,35.58
2023-04-10T11:08:41.361Z,33.76
2023-04-10T11:11:08.670Z,33.15
2023-04-10T11:13:36.586Z,32.24
2023-04-10T11:16:04.353Z,32.00
2023-04-10T11:18:59.463Z,31.97
2023-04-10T11:21:36.452Z,32.17
2023-04-10T11:24:05.315Z,31.69
2023-04-10T11:26:38.871Z,31.68
2023-04-10T11:29:06.247Z,31.54
2023-04-10T11:31:34.076Z,32.92
2023-04-10T11:34:01.953Z,31.83
2023-04-10T11:36:28.909Z,32.26
2023-04-10T11:38:56.944Z,32.11
2023-04-10T11:41:28.598Z,32.65
2023-04-10T11:43:55.396Z,33.88
2023-04-10T11:46:22.302Z,32.07
2023-04-10T11:48:52.822Z,29.86
2023-04-10T11:51:19.994Z,29.34
2023-04-10T11:53:46.820Z,29.59
2023-04-10T11:56:20.244Z,29.40
2023-04-10T11:58:49.194Z,29.77
2023-04-10T12:01:16.033Z,29.91
2023-04-10T12:03:43.591Z,29.13
2023-04-10T12:06:11.050Z,28.89
2023-04-10T12:08:38.947Z,29.64
2023-04-10T12:11:06.439Z,29.31
2023-04-10T12:13:33.243Z,29.60
2023-04-10T12:16:02.317Z,29.97
2023-04-10T12:18:29.764Z,30.32
2023-04-10T12:20:56.751Z,30.45
2023-04-10T12:23:23.800Z,30.02
2023-04-10T12:25:50.995Z,30.62
2023-04-10T12:28:18.685Z,30.61
2023-04-10T12:30:49.165Z,30.03
2023-04-10T12:33:22.033Z,30.26
2023-04-10T12:35:48.884Z,29.87
2023-04-10T12:38:15.702Z,29.83
2023-04-10T12:40:57.773Z,29.93
2023-04-10T12:43:31.021Z,29.88
2023-04-10T12:45:58.024Z,29.69
2023-04-10T12:48:26.375Z,29.66
2023-04-10T12:50:53.280Z,28.99
2023-04-10T12:53:20.297Z,29.38
2023-04-10T12:55:56.757Z,29.27
2023-04-10T12:58:23.627Z,29.35
2023-04-10T13:00:50.554Z,29.17
2023-04-10T13:03:17.484Z,28.58
2023-04-10T13:05:45.939Z,32.77
2023-04-10T13:08:12.751Z,31.41
2023-04-10T13:10:39.612Z,31.05
2023-04-10T13:13:06.486Z,30.14
2023-04-10T13:15:33.345Z,30.67
2023-04-10T13:18:00.254Z,30.32
2023-04-10T13:20:27.421Z,29.19
2023-04-10T13:22:55.594Z,29.71
2023-04-10T13:25:22.506Z,28.97
2023-04-10T13:27:49.346Z,29.04
2023-04-10T13:30:16.165Z,29.81
2023-04-10T13:32:42.997Z,28.76
2023-04-10T13:35:09.834Z,28.78
2023-04-10T13:37:36.668Z,27.76
2023-04-10T13:40:05.416Z,28.33
2023-04-10T13:42:32.567Z,28.49
2023-04-10T13:44:59.404Z,28.35
2023-04-10T13:47:26.298Z,27.61
2023-04-10T13:49:53.165Z,27.31
2023-04-10T13:52:19.987Z,27.71
2023-04-10T13:54:48.644Z,26.44
2023-04-10T13:57:16.861Z,27.93
2023-04-10T13:59:43.697Z,28.85
2023-04-10T14:02:10.684Z,27.46
2023-04-10T14:04:37.621Z,28.56
2023-04-10T14:07:04.436Z,28.02
2023-04-10T14:09:31.246Z,28.00
2023-04-10T14:11:58.127Z,27.96
2023-04-10T14:14:26.386Z,27.60
2023-04-10T14:16:53.245Z,26.87
2023-04-10T14:19:20.142Z,26.87
2023-04-10T14:21:46.997Z,26.40
2023-04-10T14:24:13.811Z,27.25
2023-04-10T14:26:40.638Z,27.08
2023-04-10T14:29:07.456Z,26.65
2023-04-10T14:31:39.189Z,26.76
2023-04-10T14:34:10.904Z,26.78
2023-04-10T14:36:37.718Z,26.40
2023-04-10T14:39:04.533Z,26.04
2023-04-10T14:41:31.364Z,25.16
2023-04-10T14:43:58.165Z,25.45
2023-04-10T14:46:25.095Z,25.53
2023-04-10T14:48:53.396Z,25.83
2023-04-10T14:51:20.322Z,25.76
2023-04-10T14:53:47.123Z,25.60
2023-04-10T14:56:14.673Z,25.76
2023-04-10T14:58:41.636Z,25.40
2023-04-10T15:01:09.033Z,29.55
2023-04-10T15:03:36.011Z,28.88
2023-04-10T15:06:04.638Z,30.75
2023-04-10T15:08:31.616Z,31.25
2023-04-10T15:10:58.477Z,32.70
2023-04-10T15:13:25.290Z,33.67
2023-04-10T15:15:52.086Z,33.84
2023-04-10T15:18:19.006Z,32.97
2023-04-10T15:20:45.806Z,32.51
2023-04-10T15:23:13.955Z,32.42
2023-04-10T15:25:40.793Z,32.35
2023-04-10T15:28:07.590Z,32.45
2023-04-10T15:30:34.457Z,32.07
2023-04-10T15:33:01.334Z,32.39
2023-04-10T15:35:28.257Z,32.16
2023-04-10T15:37:55.046Z,32.09
2023-04-10T15:40:23.302Z,31.92
2023-04-10T15:42:50.100Z,31.98
2023-04-10T15:45:16.961Z,32.03
2023-04-10T15:47:46.001Z,31.95
2023-04-10T15:50:12.961Z,31.72
2023-04-10T15:52:39.787Z,32.07
2023-04-10T15:55:07.046Z,32.09
2023-04-10T15:57:35.202Z,32.16
2023-04-10T16:00:02.337Z,31.85
2023-04-10T16:02:29.395Z,32.09
2023-04-10T16:04:56.481Z,32.15
2023-04-10T16:07:23.327Z,31.99
2023-04-10T16:09:50.304Z,31.88
2023-04-10T16:12:17.096Z,31.86
2023-04-10T16:14:45.272Z,31.72
2023-04-10T16:17:12.112Z,32.10
2023-04-10T16:19:38.927Z,31.90
2023-04-10T16:22:05.743Z,31.71
2023-04-10T16:24:32.589Z,32.28
2023-04-10T16:26:59.401Z,32.07
2023-04-10T16:29:26.283Z,32.06
2023-04-10T16:31:54.541Z,32.23
2023-04-10T16:34:21.386Z,32.22
2023-04-10T16:36:48.194Z,32.38
2023-04-10T16:39:15.168Z,32.75
2023-04-10T16:41:41.977Z,32.90
2023-04-10T16:44:08.857Z,32.82
2023-04-10T16:46:35.809Z,32.22
2023-04-10T16:49:04.008Z,32.66
2023-04-10T16:51:30.819Z,32.71
2023-04-10T16:53:57.942Z,32.64
2023-04-10T16:56:24.927Z,32.69
2023-04-10T16:58:51.852Z,32.71
2023-04-10T17:01:20.112Z,32.75
2023-04-10T17:03:47.953Z,32.69
2023-04-10T17:06:17.285Z,32.40
2023-04-10T17:08:44.241Z,32.39
2023-04-10T17:11:11.172Z,32.23
2023-04-10T17:13:37.980Z,32.36
2023-04-10T17:16:05.209Z,32.49
2023-04-10T17:18:32.243Z,33.05
2023-04-10T17:20:59.085Z,37.55
2023-04-10T17:23:27.312Z,37.05
2023-04-10T17:25:54.198Z,36.65
2023-04-10T17:28:21.111Z,35.61
2023-04-10T17:30:47.937Z,35.50
2023-04-10T17:33:14.738Z,34.60
2023-04-10T17:35:41.887Z,34.24
2023-04-10T17:38:08.923Z,34.41
2023-04-10T17:40:37.871Z,33.94
2023-04-10T17:43:04.665Z,34.36
2023-04-10T17:45:31.491Z,34.50
2023-04-10T17:47:58.425Z,34.21
2023-04-10T17:50:25.312Z,34.07
2023-04-10T17:52:52.681Z,34.19
2023-04-10T17:55:20.427Z,34.08
2023-04-10T17:57:49.535Z,34.30
2023-04-10T18:00:18.125Z,34.02
2023-04-10T18:02:46.290Z,34.08
2023-04-10T18:05:13.278Z,34.14
2023-04-10T18:07:40.116Z,34.18
2023-04-10T18:10:09.733Z,34.15
2023-04-10T18:12:37.839Z,34.37
2023-04-10T18:15:07.059Z,34.46
2023-04-10T18:17:33.876Z,34.28
2023-04-10T18:20:00.676Z,34.64
2023-04-10T18:22:28.157Z,34.71
2023-04-10T18:24:55.064Z,34.27
2023-04-10T18:27:21.909Z,34.44
2023-04-10T18:29:48.741Z,34.36
2023-04-10T18:32:16.899Z,34.36
2023-04-10T18:34:43.692Z,34.26
2023-04-10T18:37:10.554Z,34.35
2023-04-10T18:39:37.353Z,34.26
2023-04-10T18:42:04.281Z,34.50
2023-04-10T18:44:32.765Z,34.16
2023-04-10T18:47:04.299Z,34.63
2023-04-10T18:49:33.430Z,34.23
2023-04-10T18:52:00.329Z,34.46
2023-04-10T18:54:27.138Z,34.16
2023-04-10T18:56:54.142Z,34.11
2023-04-10T18:59:20.984Z,34.14
2023-04-10T19:01:47.849Z,34.20
2023-04-10T19:04:15.003Z,34.52
2023-04-10T19:06:43.260Z,34.52
2023-04-10T19:09:10.098Z,34.42
2023-04-10T19:11:37.458Z,34.24
2023-04-10T19:14:04.282Z,34.29
2023-04-10T19:19:03.295Z,34.32
2023-04-10T19:21:30.142Z,34.15
2023-04-10T19:23:58.320Z,34.17
2023-04-10T19:26:25.211Z,34.41
2023-04-10T19:28:52.026Z,34.34
2023-04-10T19:31:18.871Z,34.61
2023-04-10T19:33:45.753Z,34.28
2023-04-10T19:36:12.607Z,34.61
2023-04-10T19:38:39.426Z,34.38
2023-04-10T19:41:14.256Z,34.50
2023-04-10T19:43:42.063Z,34.42
2023-04-10T19:46:15.224Z,34.42
2023-04-10T19:48:42.181Z,34.80
2023-04-10T19:51:09.036Z,34.72
2023-04-10T19:53:35.880Z,34.67
2023-04-10T19:56:02.696Z,34.86
2023-04-10T20:01:02.899Z,35.04
2023-04-10T20:03:29.948Z,34.72
2023-04-10T20:05:59.174Z,34.55
2023-04-10T20:08:26.045Z,34.84
2023-04-10T20:10:52.842Z,34.85
2023-04-10T20:13:19.642Z,34.78
2023-04-10T20:15:47.905Z,34.51
2023-04-10T20:18:14.902Z,34.63
2023-04-10T20:20:41.782Z,34.86
2023-04-10T20:23:08.636Z,34.60
2023-04-10T20:25:35.496Z,34.91
2023-04-10T20:28:02.327Z,34.89
2023-04-10T20:30:29.245Z,34.80
2023-04-10T20:32:57.486Z,34.76
2023-04-10T20:35:24.887Z,34.79
2023-04-10T20:37:51.730Z,35.01
2023-04-10T20:40:18.604Z,35.09
2023-04-10T20:42:45.399Z,35.12
2023-04-10T20:45:12.346Z,35.06
2023-04-10T20:47:39.994Z,34.86
2023-04-10T20:50:09.767Z,34.85
2023-04-10T20:52:39.257Z,34.84
2023-04-10T20:55:06.462Z,35.02
2023-04-10T20:57:33.305Z,34.77
2023-04-10T21:00:00.165Z,34.96
2023-04-10T21:02:27.107Z,34.86
2023-04-10T21:04:54.058Z,34.70
2023-04-10T21:07:22.275Z,34.72
2023-04-10T21:09:49.079Z,34.99
2023-04-10T21:12:15.868Z,34.76
2023-04-10T21:14:42.851Z,34.98
2023-04-10T21:17:09.662Z,34.75
2023-04-10T21:19:36.479Z,34.93
2023-04-10T21:22:03.309Z,34.82
2023-04-10T21:24:31.501Z,35.14
2023-04-10T21:26:58.307Z,35.21
2023-04-10T21:29:25.158Z,34.87
2023-04-10T21:31:51.971Z,35.05
2023-04-10T21:34:18.806Z,35.20
2023-04-10T21:36:45.693Z,34.98
2023-04-10T21:39:12.488Z,35.10
2023-04-10T21:41:40.650Z,34.82
2023-04-10T21:44:07.525Z,35.10
2023-04-10T21:46:34.405Z,34.83
2023-04-10T21:49:01.292Z,35.16
2023-04-10T21:51:28.165Z,34.93
2023-04-10T21:53:55.242Z,35.07
2023-04-10T21:56:22.123Z,34.79
2023-04-10T21:58:50.328Z,35.14
2023-04-10T22:01:17.141Z,34.91
2023-04-10T22:03:44.191Z,35.13
2023-04-10T22:06:11.115Z,35.25
2023-04-10T22:08:37.915Z,35.08
2023-04-10T22:11:04.808Z,35.12
2023-04-10T22:13:31.809Z,35.11
2023-04-10T22:16:00.418Z,35.37
2023-04-10T22:18:27.357Z,35.14
2023-04-10T22:20:54.426Z,35.00
2023-04-10T22:23:21.233Z,35.23
2023-04-10T22:25:48.036Z,35.24
2023-04-10T22:28:14.889Z,35.02
2023-04-10T22:30:41.881Z,35.13
2023-04-10T22:33:10.250Z,35.08
2023-04-10T22:35:37.206Z,35.10
2023-04-10T22:38:04.022Z,35.23
2023-04-10T22:40:30.839Z,35.25
2023-04-10T22:42:57.696Z,34.94
2023-04-10T22:45:24.599Z,35.11
2023-04-10T22:47:51.413Z,35.25
2023-04-10T22:50:19.717Z,35.16
2023-04-10T22:52:46.536Z,35.11
2023-04-10T22:55:13.327Z,35.15
2023-04-10T22:57:40.166Z,35.38
2023-04-10T23:00:07.944Z,35.24
2023-04-10T23:02:35.048Z,35.59
2023-04-10T23:05:01.983Z,35.37
2023-04-10T23:07:30.163Z,35.44
2023-04-10T23:09:57.047Z,35.27
2023-04-10T23:12:23.890Z,35.54
2023-04-10T23:14:50.723Z,35.44
2023-04-10T23:17:19.135Z,35.42
2023-04-10T23:19:45.982Z,35.26
2023-04-10T23:22:12.788Z,35.17
2023-04-10T23:24:40.945Z,35.17
2023-04-10T23:27:07.834Z,35.42
2023-04-10T23:29:34.667Z,35.23
2023-04-10T23:32:01.491Z,35.37
2023-04-10T23:34:28.338Z,35.28
2023-04-10T23:36:55.138Z,35.22
2023-04-10T23:39:21.945Z,35.25
2023-04-10T23:41:50.115Z,35.45
2023-04-10T23:44:16.924Z,35.36
2023-04-10T23:46:43.763Z,35.48
2023-04-10T23:49:10.705Z,35.52
2023-04-10T23:51:37.516Z,35.50
2023-04-10T23:54:04.920Z,35.56
2023-04-10T23:56:31.784Z,35.43
2023-04-10T23:58:59.981Z,35.78
